Airfield :
LOGIN :

Register | Disclaimer

   EN    FR    IT 

 










Legend :    VFR   Marginal VFR   IFR   Intensive IFR   Very Intensive IFR
Visi :
Ceiling :
>= 8 km
>= 3000ft
5 to 8 km
1000 to 3000 ft
1500m to 5 km
500 to 1000 ft
800 to 1500m
200 to 500 ft
< 800m
< 200 ft
Symbols :   Thunderstorms  Fog  Heavy snow  Heavy precipitations  Wind > 20 kt
SIGMETs :     Misc.  Thunderstorms  Icing  Turbulence  Mountain Waves  Volcanic Ashes






- Airport Elevation : 194 ft


EBCV - Chièvres

CURRENT METAR :
  • 190555Z AUTO 01005KT 3900 BR FEW005/// SCT010/// BKN020/// 15/14 Q1016 GRN

EXPIRED METARs :
  • 190525Z AUTO 03005KT 3400 BR FEW006/// SCT008/// BKN011/// 15/14 Q1016 YLO
  • 190455Z AUTO 02006KT 3800 BR SCT006/// BKN008/// BKN095/// 14/14 Q1016 YLO
  • 190425Z AUTO 01007KT 3300 BR SCT006/// BKN009/// BKN100/// 14/14 Q1015 YLO
  • 190355Z AUTO 36005KT 2900 BR FEW006/// SCT008/// BKN014/// 14/14 Q1015 YLO
  • 190333Z AUTO 02005KT 3300 BR FEW006/// SCT011/// BKN080/// 15/14 Q1015 YLO
  • 190255Z AUTO 01006KT 3300 BR FEW006/// SCT009/// BKN012/// 15/14 Q1015 YLO
  • 190225Z AUTO 01004KT 3300 BR BKN006/// BKN055/// OVC095/// 15/15 Q1015 YLO
  • 190155Z AUTO 01006KT 3200 BR SCT005/// BKN007/// OVC095/// 15/15 Q1015 YLO
  • 190125Z AUTO 01006KT 3400 BR FEW004/// BKN006/// BKN070/// 15/15 Q1014 YLO

TAF TAF EBCV
Valid from the 18 at 19:00 until the 19 at 07:00 UTC


181541Z 1819/1907 01007KT 8000 FEW008 SCT012 BKN080
TEMPO 1819/1822 6000 -RA SCT005 OVC010
TEMPO 1822/1907 BKN006 BY EBWM



MET'MAP, your aeronautical weather chart ! - Copyright ORBIFLY December 2007 - Disclaimer

ORBIFLY MET'MAP TEAM :

Programming & Development : Alexandra Zaïnal
Original concept : Baudouin d'Aumeries
Technical & hardware support : Manuel Goepfert
Assistance : Marc-Olivier Méhu




SOURCES & CREDITS :

   NOAA